Niagara, Wisconsin
Current Conditions -  °F | °C
As of 12:54 AM on Thursday 23 Oct 2014 (Local Time) from KIMT Reporting Station
Overcast Overcast  
Wind Chill: 34°   Ceiling: 500
Heat Index: 39°   Visibility: 8mi
Dew Point: 37°   Wind: 7mph
Humidity: 93%   Direction: 170°S
Pressure: 30.18"   Gusts: NA
Location:  45.77°N, 87.99°W
Report Text: KIMT 230554Z AUTO 17006KT 8SM OVC005 04/03 A3018 RMK AO2 SLP232 T00390028 10056 20017 401111056 58008
Loading
Personal Weather Stations






























Interactive Weather Map New forecast layout! Learn more

10-Day Weather Forecast

Advertisements
Track Severe Weather on mobile